LFPG/CDG METAR and TAF weather

Enter ICAO airport designator
Station Type Date Time Source
LFPG METAR 2022/01/25 04:30 UTC NOAA

LFPG 250430Z VRB02KT 0400 R27L/P2000 R09R/0550D R26R/1300D R08L/0500N R26L/P2000 R08R/0600U R27R/1200U R09L/1200D FZFG VV/// M02/M02 Q1032 BECMG 0300 FZFG VV///


Station Type Date Time Source
LFPG Decoded METAR 2022/01/25 04:30 UTC NOAA

Paris-Aeroport Charles De Gaulle, France (LFPG) 49-01N 002-32E 109M
Jan 24, 2022 - 11:30 PM EST / 2022.01.25 0430 UTC
Wind: Variable at 2 MPH (2 KT):0
Visibility: less than 1 mile:0
Sky conditions: obscured
Weather: freezing fog
Temperature: 28 F (-2 C)
Dew Point: 28 F (-2 C)
Relative Humidity: 100%
Pressure (altimeter): 30.47 in. Hg (1032 hPa)
ob: LFPG 250430Z VRB02KT 0400 R27L/P2000 R09R/0550D R26R/1300D R08L/0500N R26L/P2000 R08R/0600U R27R/1200U R09L/1200D FZFG VV/// M02/M02 Q1032 BECMG 0300 FZFG VV///
cycle: 4

Station Type Date Time Source
LFPG TAF 2022/01/24 19:26 UTC NOAA

TAF
AMD LFPG 241959Z 2419/2524 06004KT 8000 NSC TX03/2515Z TNM02/2506Z
BECMG 2422/2424 4000 BR
BECMG 2500/2502 BKN003 PROB40 2502/2512 0800 FG BKN002 PROB30 2503/2509 0400 FZFG VV///
BECMG 2510/2512 6000 NSW BKN006
BECMG 2521/2524 4000 BR BKN004 PROB30
TEMPO 2522/2524 2000 -SN

Example: see airport list